createdAt,value
2023-02-13T00:03:22.862Z,11.43
2023-02-13T00:08:24.633Z,11.02
2023-02-13T00:13:26.385Z,11.20
2023-02-13T00:18:30.490Z,11.07
2023-02-13T00:23:33.529Z,10.13
2023-02-13T00:28:35.673Z,10.93
2023-02-13T00:33:37.920Z,10.77
2023-02-13T00:38:41.272Z,11.18
2023-02-13T00:43:44.272Z,10.35
2023-02-13T00:48:46.398Z,10.90
2023-02-13T00:53:48.124Z,11.48
2023-02-13T00:58:49.840Z,11.07
2023-02-13T01:03:51.537Z,11.75
2023-02-13T01:08:53.253Z,11.18
2023-02-13T01:13:55.012Z,10.93
2023-02-13T01:18:56.848Z,11.02
2023-02-13T01:23:58.686Z,10.65
2023-02-13T01:29:00.847Z,11.00
2023-02-13T01:34:02.597Z,11.50
2023-02-13T01:39:04.328Z,10.63
2023-02-13T01:44:43.736Z,10.65
2023-02-13T01:49:46.652Z,11.25
2023-02-13T01:54:48.458Z,11.75
2023-02-13T01:59:57.130Z,11.45
2023-02-13T02:04:59.150Z,10.52
2023-02-13T02:10:04.749Z,11.43
2023-02-13T02:15:07.677Z,11.27
2023-02-13T02:20:15.583Z,10.93
2023-02-13T02:25:35.852Z,10.70
2023-02-13T02:30:52.694Z,10.70
2023-02-13T02:36:20.715Z,10.35
2023-02-13T02:41:42.664Z,10.57
2023-02-13T02:47:26.600Z,10.40
2023-02-13T02:52:48.490Z,10.15
2023-02-13T02:58:42.187Z,10.52
2023-02-13T03:04:03.217Z,9.70
2023-02-13T03:09:29.556Z,9.77
2023-02-13T03:14:31.295Z,9.38
2023-02-13T03:20:12.925Z,9.05
2023-02-13T03:25:36.112Z,9.15
2023-02-13T03:31:00.008Z,8.57
2023-02-13T03:36:41.129Z,7.70
2023-02-13T03:41:50.557Z,7.22
2023-02-13T03:46:55.386Z,6.28
2023-02-13T03:52:03.520Z,6.50
2023-02-13T03:57:24.464Z,5.55
2023-02-13T04:02:32.881Z,5.88
2023-02-13T04:07:35.575Z,5.03
2023-02-13T04:13:05.752Z,5.15
2023-02-13T04:18:22.313Z,8.00
2023-02-13T04:23:24.000Z,5.25
2023-02-13T04:28:25.914Z,4.78
2023-02-13T04:33:27.655Z,4.97
2023-02-13T04:38:29.408Z,5.45
2023-02-13T04:43:31.142Z,4.80
2023-02-13T04:48:32.872Z,5.00
2023-02-13T04:53:34.576Z,5.00
2023-02-13T04:58:36.347Z,5.05
2023-02-13T05:03:38.110Z,6.22
2023-02-13T05:08:39.955Z,5.80
2023-02-13T05:13:41.706Z,5.18
2023-02-13T05:18:43.531Z,5.07
2023-02-13T05:23:45.278Z,5.07
2023-02-13T05:29:05.429Z,4.47
2023-02-13T05:34:07.353Z,4.82
2023-02-13T05:39:09.370Z,4.93
2023-02-13T05:44:12.145Z,5.05
2023-02-13T05:49:15.153Z,4.57
2023-02-13T05:54:16.989Z,4.70
2023-02-13T05:59:18.761Z,5.38
2023-02-13T06:04:20.512Z,5.28
2023-02-13T06:09:22.287Z,5.28
2023-02-13T06:14:25.375Z,4.63
2023-02-13T06:19:27.162Z,4.95
2023-02-13T06:24:28.938Z,5.63
2023-02-13T06:29:32.902Z,5.40
2023-02-13T06:34:34.605Z,5.13
2023-02-13T06:39:36.303Z,5.57
2023-02-13T06:44:38.074Z,6.38
2023-02-13T06:49:39.837Z,5.82
2023-02-13T06:54:47.791Z,6.25
2023-02-13T06:59:49.901Z,5.35
2023-02-13T07:04:51.612Z,5.47
2023-02-13T07:09:53.502Z,5.47
2023-02-13T07:14:55.258Z,5.10
2023-02-13T07:19:58.200Z,4.82
2023-02-13T07:25:00.961Z,4.97
2023-02-13T07:30:02.650Z,5.95
2023-02-13T07:35:04.600Z,5.35
2023-02-13T07:40:07.263Z,6.88
2023-02-13T07:45:09.444Z,5.68
2023-02-13T07:50:12.014Z,5.13
2023-02-13T07:55:13.682Z,5.45
2023-02-13T08:00:16.191Z,5.47
2023-02-13T08:05:18.168Z,5.68
2023-02-13T08:10:38.792Z,5.10
2023-02-13T08:15:41.014Z,5.45
2023-02-13T08:20:42.948Z,5.50
2023-02-13T08:25:44.702Z,5.60
2023-02-13T08:30:46.540Z,5.10
2023-02-13T08:35:48.562Z,5.22
2023-02-13T08:40:50.264Z,5.05
2023-02-13T08:45:53.482Z,5.38
2023-02-13T08:50:55.358Z,5.03
2023-02-13T08:55:58.415Z,5.82
2023-02-13T09:01:00.514Z,6.20
2023-02-13T09:06:02.772Z,5.03
2023-02-13T09:11:07.268Z,5.97
2023-02-13T09:16:10.713Z,5.45
2023-02-13T09:21:15.153Z,5.70
2023-02-13T09:26:19.688Z,6.60
2023-02-13T09:31:24.355Z,5.47
2023-02-13T09:36:26.414Z,5.57
2023-02-13T09:41:44.212Z,5.90
2023-02-13T09:46:46.775Z,5.43
2023-02-13T09:51:55.932Z,6.25
2023-02-13T09:57:27.604Z,5.63
2023-02-13T10:02:52.346Z,5.35
2023-02-13T10:08:18.365Z,6.45
2023-02-13T10:13:49.326Z,6.47
2023-02-13T10:19:00.498Z,6.53
2023-02-13T10:24:20.567Z,5.47
2023-02-13T10:29:50.191Z,5.10
2023-02-13T10:34:54.959Z,5.53
2023-02-13T10:39:56.845Z,5.85
2023-02-13T10:45:03.323Z,5.18
2023-02-13T10:50:29.737Z,3.42
2023-02-13T10:55:42.466Z,4.45
2023-02-13T11:00:53.048Z,4.50
2023-02-13T11:05:57.392Z,3.67
2023-02-13T11:10:59.853Z,2.78
2023-02-13T11:16:13.965Z,2.97
2023-02-13T11:21:34.380Z,3.13
2023-02-13T11:26:39.025Z,2.88
2023-02-13T11:31:40.856Z,3.28
2023-02-13T11:36:42.743Z,3.63
2023-02-13T11:41:46.074Z,3.50
2023-02-13T11:46:50.186Z,3.42
2023-02-13T11:51:54.854Z,3.58
2023-02-13T11:57:04.324Z,3.15
2023-02-13T12:02:29.137Z,3.80
2023-02-13T12:07:32.994Z,3.58
2023-02-13T12:12:40.704Z,2.85
2023-02-13T12:17:45.373Z,3.20
2023-02-13T12:23:22.116Z,2.42
2023-02-13T12:28:44.673Z,3.05
2023-02-13T12:34:17.736Z,4.13
2023-02-13T12:39:34.586Z,3.28
2023-02-13T12:44:56.243Z,3.65
2023-02-13T12:50:30.839Z,3.40
2023-02-13T12:55:47.310Z,3.65
2023-02-13T13:01:25.600Z,4.55
2023-02-13T13:06:54.585Z,4.00
2023-02-13T13:12:14.487Z,4.30
2023-02-13T13:17:38.840Z,4.40
2023-02-13T13:22:53.602Z,3.90
2023-02-13T13:28:04.676Z,3.95
2023-02-13T13:33:19.157Z,4.50
2023-02-13T13:38:42.679Z,4.30
2023-02-13T13:44:06.313Z,4.25
2023-02-13T13:49:36.098Z,4.50
2023-02-13T13:54:37.797Z,4.40
2023-02-13T13:59:55.540Z,4.30
2023-02-13T14:05:04.012Z,5.03
2023-02-13T14:10:07.245Z,4.78
2023-02-13T14:15:35.091Z,4.28
2023-02-13T14:20:56.753Z,5.15
2023-02-13T14:26:17.273Z,5.85
2023-02-13T14:31:25.436Z,5.78
2023-02-13T14:36:34.401Z,6.20
2023-02-13T14:41:51.820Z,6.82
2023-02-13T14:46:56.284Z,6.75
2023-02-13T14:52:06.280Z,6.30
2023-02-13T14:57:23.150Z,8.10
2023-02-13T15:02:28.747Z,6.07
2023-02-13T15:07:36.963Z,6.18
2023-02-13T15:12:38.958Z,5.90
2023-02-13T15:17:41.225Z,5.97
2023-02-13T15:22:47.069Z,5.90
2023-02-13T15:27:54.501Z,5.90
2023-02-13T15:33:00.564Z,5.88
2023-02-13T15:38:28.627Z,4.80
2023-02-13T15:43:39.393Z,5.47
2023-02-13T15:48:41.247Z,5.55
2023-02-13T15:54:04.079Z,6.18
2023-02-13T15:59:06.146Z,6.20
2023-02-13T16:04:12.407Z,7.38
2023-02-13T16:09:35.204Z,5.63
2023-02-13T16:14:51.171Z,5.95
2023-02-13T16:19:57.736Z,6.55
2023-02-13T16:25:24.640Z,6.32
2023-02-13T16:31:00.259Z,6.68
2023-02-13T16:36:11.508Z,6.85
2023-02-13T16:41:31.134Z,7.10
2023-02-13T16:46:40.710Z,7.78
2023-02-13T16:52:23.291Z,7.22
2023-02-13T16:57:33.718Z,7.15
2023-02-13T17:02:38.437Z,6.75
2023-02-13T17:07:43.688Z,6.57
2023-02-13T17:12:46.561Z,7.35
2023-02-13T17:17:53.856Z,6.20
2023-02-13T17:23:01.134Z,5.82
2023-02-13T17:28:18.766Z,6.45
2023-02-13T17:33:27.519Z,6.22
2023-02-13T17:38:29.281Z,5.68
2023-02-13T17:43:31.198Z,7.28
2023-02-13T17:48:32.908Z,6.75
2023-02-13T17:53:35.468Z,7.32
2023-02-13T17:58:37.173Z,7.10
2023-02-13T18:03:40.319Z,7.03
2023-02-13T18:08:42.330Z,7.00
2023-02-13T18:13:48.014Z,6.90
2023-02-13T18:18:50.161Z,6.63
2023-02-13T18:23:53.660Z,7.50
2023-02-13T18:28:55.335Z,7.20
2023-02-13T18:33:57.104Z,8.38
2023-02-13T18:38:58.847Z,8.65
2023-02-13T18:44:00.538Z,9.40
2023-02-13T18:49:03.046Z,8.55
2023-02-13T18:54:06.040Z,9.02
2023-02-13T18:59:07.804Z,8.95
2023-02-13T19:04:10.749Z,8.02
2023-02-13T19:09:13.233Z,8.73
2023-02-13T19:14:16.007Z,8.90
2023-02-13T19:19:17.752Z,8.43
2023-02-13T19:24:19.831Z,8.73
2023-02-13T19:29:21.778Z,8.82
2023-02-13T19:34:23.495Z,9.30
2023-02-13T19:39:25.210Z,9.00
2023-02-13T19:44:26.855Z,8.30
2023-02-13T19:49:31.917Z,9.75
2023-02-13T19:54:34.047Z,9.23
2023-02-13T19:59:35.800Z,9.40
2023-02-13T20:04:39.193Z,10.45
2023-02-13T20:09:41.132Z,10.80
2023-02-13T20:14:43.000Z,11.82
2023-02-13T20:19:44.790Z,12.05
2023-02-13T20:24:47.235Z,11.68
2023-02-13T20:29:48.981Z,12.68
2023-02-13T20:34:59.516Z,13.05
2023-02-13T20:40:01.877Z,12.82
2023-02-13T20:45:04.619Z,12.95
2023-02-13T20:50:06.895Z,13.52
2023-02-13T20:55:08.807Z,14.05
2023-02-13T21:00:13.170Z,15.63
2023-02-13T21:05:14.989Z,15.02
2023-02-13T21:10:17.968Z,14.82
2023-02-13T21:15:19.743Z,13.82
2023-02-13T21:20:21.493Z,14.27
2023-02-13T21:25:23.396Z,13.73
2023-02-13T21:30:25.257Z,13.57
2023-02-13T21:35:26.975Z,13.00
2023-02-13T21:40:28.750Z,13.85
2023-02-13T21:45:30.577Z,12.75
2023-02-13T21:50:32.394Z,11.82
2023-02-13T21:55:34.269Z,12.38
2023-02-13T22:00:36.058Z,12.40
2023-02-13T22:05:37.754Z,12.05
2023-02-13T22:10:39.896Z,11.25
2023-02-13T22:15:41.633Z,11.73
2023-02-13T22:20:43.559Z,11.68
2023-02-13T22:25:49.301Z,12.35
2023-02-13T22:30:51.220Z,12.23
2023-02-13T22:35:53.063Z,11.43
2023-02-13T22:40:54.828Z,12.52
2023-02-13T22:46:02.376Z,11.18
2023-02-13T22:51:06.553Z,11.55
2023-02-13T22:56:10.040Z,11.60
2023-02-13T23:01:14.553Z,11.57
2023-02-13T23:06:16.766Z,10.73
2023-02-13T23:11:37.976Z,11.40
2023-02-13T23:16:59.863Z,11.48
2023-02-13T23:22:01.793Z,11.23
2023-02-13T23:27:03.532Z,10.88
2023-02-13T23:32:05.471Z,11.77
2023-02-13T23:37:07.223Z,12.30
2023-02-13T23:42:09.115Z,12.73
2023-02-13T23:47:10.937Z,12.80
2023-02-13T23:52:12.656Z,13.13
2023-02-13T23:57:14.726Z,13.45
